Terminal Aerodrome Forecast
Issued by NWS

Home | Current Version | Previous Version | Graphics & Text | Print | Product List | Glossary On
Versions: 1 2 3 4 5 6 7 8 9 10 11 12 13 14
000
FTUS45 KGGW 020530
TAFSDY
TAF
KSDY 020530Z 0206/0306 VRB03KT P6SM SCT001 BKN070
      TEMPO 0206/0209 00000KT 1/2SM FZFG OVC001
     FM020900 00000KT 3SM BR OVC015
     FM021800 24005KT P6SM BKN020=

USA.gov is the U.S. government's official web portal to all federal, state and local government web resources and services.